createdAt,value
2019-03-22T00:02:03.136Z,10.17
2019-03-22T00:04:29.473Z,11.37
2019-03-22T00:06:55.808Z,11.47
2019-03-22T00:09:21.717Z,12.47
2019-03-22T00:11:47.750Z,10.90
2019-03-22T00:14:13.601Z,11.23
2019-03-22T00:16:39.689Z,11.23
2019-03-22T00:19:05.817Z,11.83
2019-03-22T00:21:31.789Z,11.43
2019-03-22T00:23:57.909Z,11.30
2019-03-22T00:26:23.952Z,10.67
2019-03-22T00:28:50.302Z,12.83
2019-03-22T00:31:16.639Z,11.47
2019-03-22T00:33:42.984Z,11.70
2019-03-22T00:36:08.910Z,11.17
2019-03-22T00:38:34.927Z,12.23
2019-03-22T00:41:00.725Z,11.83
2019-03-22T00:43:26.757Z,11.43
2019-03-22T00:45:52.615Z,11.13
2019-03-22T00:48:18.748Z,11.80
2019-03-22T00:50:44.895Z,12.13
2019-03-22T00:53:11.116Z,12.10
2019-03-22T00:55:37.111Z,11.67
2019-03-22T00:58:03.118Z,11.60
2019-03-22T01:00:29.347Z,12.33
2019-03-22T01:02:55.659Z,11.93
2019-03-22T01:05:21.737Z,12.27
2019-03-22T01:07:48.059Z,11.70
2019-03-22T01:10:14.296Z,12.00
2019-03-22T01:12:40.469Z,12.10
2019-03-22T01:15:08.923Z,11.57
2019-03-22T01:17:35.307Z,12.63
2019-03-22T01:20:02.953Z,12.33
2019-03-22T01:22:28.923Z,12.83
2019-03-22T01:24:55.019Z,12.30
2019-03-22T01:27:21.153Z,12.30
2019-03-22T01:29:47.532Z,12.37
2019-03-22T01:32:13.376Z,11.43
2019-03-22T01:34:39.574Z,12.27
2019-03-22T01:37:05.447Z,11.80
2019-03-22T01:39:31.652Z,12.33
2019-03-22T01:41:57.861Z,12.10
2019-03-22T01:44:23.866Z,11.27
2019-03-22T01:46:50.372Z,11.40
2019-03-22T01:49:16.739Z,11.93
2019-03-22T01:51:43.173Z,11.97
2019-03-22T01:54:09.085Z,10.87
2019-03-22T01:56:35.165Z,11.67
2019-03-22T01:59:01.127Z,11.40
2019-03-22T02:01:27.371Z,11.17
2019-03-22T02:03:53.684Z,10.67
2019-03-22T02:06:19.805Z,11.27
2019-03-22T02:08:45.859Z,11.03
2019-03-22T02:11:11.945Z,11.60
2019-03-22T02:13:38.065Z,11.47
2019-03-22T02:16:04.325Z,11.80
2019-03-22T02:18:30.457Z,11.17
2019-03-22T02:20:56.251Z,11.10
2019-03-22T02:23:22.337Z,10.70
2019-03-22T02:25:48.527Z,10.70
2019-03-22T02:28:15.040Z,10.63
2019-03-22T02:30:41.284Z,11.07
2019-03-22T02:33:07.476Z,11.07
2019-03-22T02:35:33.662Z,10.03
2019-03-22T02:37:59.431Z,10.53
2019-03-22T02:40:25.955Z,10.37
2019-03-22T02:42:52.053Z,10.67
2019-03-22T02:45:18.140Z,10.47
2019-03-22T02:47:43.954Z,10.27
2019-03-22T02:50:17.959Z,9.93
2019-03-22T02:52:39.596Z,9.67
2019-03-22T02:55:06.810Z,9.63
2019-03-22T02:57:32.849Z,9.63
2019-03-22T02:59:58.898Z,10.70
2019-03-22T03:02:25.069Z,9.07
2019-03-22T03:04:51.072Z,9.47
2019-03-22T03:07:17.153Z,10.43
2019-03-22T03:09:42.956Z,9.30
2019-03-22T03:12:08.973Z,9.43
2019-03-22T03:14:35.098Z,8.90
2019-03-22T03:17:01.328Z,9.30
2019-03-22T03:19:27.670Z,8.57
2019-03-22T03:21:57.062Z,9.17
2019-03-22T03:24:29.813Z,9.30
2019-03-22T03:26:56.073Z,9.60
2019-03-22T03:29:22.116Z,9.00
2019-03-22T03:31:48.460Z,9.27
2019-03-22T03:34:14.441Z,9.47
2019-03-22T03:36:40.414Z,9.23
2019-03-22T03:39:07.319Z,9.63
2019-03-22T03:41:33.659Z,9.63
2019-03-22T03:43:59.620Z,9.10
2019-03-22T03:46:25.871Z,8.37
2019-03-22T03:48:51.881Z,9.33
2019-03-22T03:51:18.180Z,9.57
2019-03-22T03:53:44.142Z,9.30
2019-03-22T03:56:10.330Z,9.50
2019-03-22T03:58:51.231Z,8.20
2019-03-22T04:01:04.526Z,8.70
2019-03-22T04:03:30.655Z,8.97
2019-03-22T04:05:56.604Z,8.50
2019-03-22T04:08:22.823Z,9.37
2019-03-22T04:10:48.758Z,9.93
2019-03-22T04:13:15.058Z,8.30
2019-03-22T04:15:41.337Z,8.00
2019-03-22T04:18:07.184Z,8.17
2019-03-22T04:20:33.323Z,8.57
2019-03-22T04:22:59.436Z,7.77
2019-03-22T04:25:25.393Z,7.73
2019-03-22T04:27:52.418Z,7.90
2019-03-22T04:30:18.427Z,7.93
2019-03-22T04:32:44.770Z,9.40
2019-03-22T04:35:11.160Z,8.97
2019-03-22T04:37:37.419Z,8.60
2019-03-22T04:40:07.394Z,8.33
2019-03-22T04:42:33.223Z,8.63
2019-03-22T04:44:59.285Z,8.67
2019-03-22T04:47:26.276Z,7.40
2019-03-22T04:49:52.765Z,9.13
2019-03-22T04:52:22.454Z,8.53
2019-03-22T04:54:52.352Z,7.87
2019-03-22T04:57:20.991Z,8.70
2019-03-22T04:59:47.259Z,8.93
2019-03-22T05:02:13.802Z,9.03
2019-03-22T05:04:43.887Z,8.50
2019-03-22T05:07:10.497Z,8.23
2019-03-22T05:09:36.767Z,9.93
2019-03-22T05:12:03.343Z,8.93
2019-03-22T05:14:33.116Z,8.40
2019-03-22T05:17:00.278Z,9.00
2019-03-22T05:19:29.587Z,8.40
2019-03-22T05:21:57.189Z,8.40
2019-03-22T05:24:24.364Z,8.30
2019-03-22T05:26:52.276Z,9.60
2019-03-22T05:29:30.271Z,8.07
2019-03-22T05:32:09.111Z,8.07
2019-03-22T05:34:35.212Z,9.00
2019-03-22T05:37:01.195Z,9.27
2019-03-22T05:39:27.528Z,9.27
2019-03-22T05:41:53.901Z,8.03
2019-03-22T05:44:20.436Z,9.93
2019-03-22T05:46:48.894Z,7.63
2019-03-22T05:49:14.779Z,7.97
2019-03-22T05:51:40.627Z,8.27
2019-03-22T05:54:07.094Z,8.07
2019-03-22T05:56:32.902Z,8.07
2019-03-22T05:58:58.900Z,8.60
2019-03-22T06:01:25.178Z,8.13
2019-03-22T06:03:51.978Z,8.80
2019-03-22T06:06:18.219Z,9.87
2019-03-22T06:08:44.489Z,8.80
2019-03-22T06:11:10.940Z,8.90
2019-03-22T06:13:37.066Z,8.97
2019-03-22T06:16:03.020Z,9.53
2019-03-22T06:18:29.030Z,9.60
2019-03-22T06:20:55.169Z,9.77
2019-03-22T06:23:21.275Z,9.63
2019-03-22T06:25:47.109Z,10.40
2019-03-22T06:28:13.469Z,9.60
2019-03-22T06:30:39.509Z,9.13
2019-03-22T06:33:05.549Z,10.30
2019-03-22T06:35:31.672Z,9.37
2019-03-22T06:37:57.714Z,9.00
2019-03-22T06:40:23.837Z,9.53
2019-03-22T06:42:49.923Z,9.97
2019-03-22T06:45:15.714Z,8.77
2019-03-22T06:47:41.757Z,9.77
2019-03-22T06:50:08.008Z,9.53
2019-03-22T06:52:34.098Z,9.33
2019-03-22T06:55:02.855Z,9.87
2019-03-22T06:57:28.668Z,8.63
2019-03-22T07:00:05.962Z,8.90
2019-03-22T07:02:23.252Z,9.10
2019-03-22T07:04:49.381Z,9.03
2019-03-22T07:07:15.333Z,9.53
2019-03-22T07:09:41.448Z,10.50
2019-03-22T07:12:07.658Z,9.33
2019-03-22T07:14:33.823Z,9.23
2019-03-22T07:16:59.830Z,9.33
2019-03-22T07:19:25.959Z,9.40
2019-03-22T07:21:52.067Z,9.40
2019-03-22T07:24:18.172Z,9.00
2019-03-22T07:26:43.966Z,10.63
2019-03-22T07:29:10.052Z,9.00
2019-03-22T07:31:36.093Z,11.80
2019-03-22T07:34:02.164Z,10.07
2019-03-22T07:36:28.425Z,10.57
2019-03-22T07:38:54.554Z,10.73
2019-03-22T07:41:20.646Z,10.83
2019-03-22T07:43:46.827Z,10.93
2019-03-22T07:46:13.005Z,19.03
2019-03-22T07:48:39.084Z,11.83
2019-03-22T07:51:05.172Z,11.40
2019-03-22T07:53:31.319Z,11.57
2019-03-22T07:55:57.508Z,13.13
2019-03-22T07:58:23.607Z,13.07
2019-03-22T08:00:49.495Z,12.93
2019-03-22T08:03:15.595Z,12.77
2019-03-22T08:05:50.978Z,14.00
2019-03-22T08:08:09.677Z,14.33
2019-03-22T08:10:35.461Z,14.17
2019-03-22T08:13:02.139Z,14.63
2019-03-22T08:15:29.749Z,13.07
2019-03-22T08:17:57.219Z,13.60
2019-03-22T08:20:23.512Z,13.37
2019-03-22T08:22:49.766Z,12.50
2019-03-22T08:25:16.100Z,11.40
2019-03-22T08:27:42.423Z,12.17
2019-03-22T08:30:09.604Z,12.10
2019-03-22T08:32:35.633Z,11.40
2019-03-22T08:35:02.051Z,11.73
2019-03-22T08:37:31.186Z,13.33
2019-03-22T08:39:57.351Z,11.70
2019-03-22T08:42:23.451Z,12.23
2019-03-22T08:44:49.756Z,12.00
2019-03-22T08:47:15.826Z,11.87
2019-03-22T08:49:42.083Z,12.33
2019-03-22T08:52:08.535Z,12.53
2019-03-22T08:54:34.620Z,12.75
2019-03-22T08:57:00.692Z,11.85
2019-03-22T08:59:26.715Z,12.63
2019-03-22T09:01:52.481Z,13.30
2019-03-22T09:04:18.525Z,12.95
2019-03-22T09:06:44.656Z,12.63
2019-03-22T09:09:10.710Z,11.85
2019-03-22T09:11:36.932Z,12.82
2019-03-22T09:14:03.528Z,12.73
2019-03-22T09:16:30.927Z,11.83
2019-03-22T09:18:56.998Z,12.70
2019-03-22T09:21:23.205Z,13.35
2019-03-22T09:23:49.265Z,13.08
2019-03-22T09:26:15.240Z,12.82
2019-03-22T09:28:41.350Z,11.12
2019-03-22T09:31:11.019Z,11.10
2019-03-22T09:33:37.158Z,10.72
2019-03-22T09:36:03.319Z,11.08
2019-03-22T09:38:29.530Z,10.90
2019-03-22T09:40:55.813Z,10.75
2019-03-22T09:43:21.823Z,11.95
2019-03-22T09:45:47.888Z,12.45
2019-03-22T09:48:13.818Z,11.33
2019-03-22T09:50:39.910Z,11.05
2019-03-22T09:53:05.995Z,13.22
2019-03-22T09:55:32.081Z,11.50
2019-03-22T09:57:58.175Z,10.95
2019-03-22T10:00:31.951Z,11.97
2019-03-22T10:02:59.078Z,12.30
2019-03-22T10:05:25.098Z,11.48
2019-03-22T10:07:51.477Z,10.48
2019-03-22T10:10:17.412Z,9.95
2019-03-22T10:12:43.739Z,11.10
2019-03-22T10:15:10.312Z,10.00
2019-03-22T10:17:36.370Z,9.60
2019-03-22T10:20:04.823Z,9.35
2019-03-22T10:22:30.800Z,9.30
2019-03-22T10:24:57.265Z,10.50
2019-03-22T10:27:23.604Z,10.55
2019-03-22T10:29:49.919Z,11.05
2019-03-22T10:32:16.344Z,10.20
2019-03-22T10:34:42.310Z,10.05
2019-03-22T10:37:08.413Z,9.95
2019-03-22T10:39:34.485Z,9.05
2019-03-22T10:42:00.350Z,10.18
2019-03-22T10:44:26.560Z,9.15
2019-03-22T10:46:52.734Z,10.23
2019-03-22T10:49:18.621Z,12.30
2019-03-22T10:51:56.146Z,10.35
2019-03-22T10:54:12.738Z,11.30
2019-03-22T10:56:38.948Z,10.80
2019-03-22T10:59:05.057Z,11.97
2019-03-22T11:01:31.280Z,11.33
2019-03-22T11:03:57.614Z,13.25
2019-03-22T11:06:26.363Z,10.20
2019-03-22T11:08:51.990Z,10.13
2019-03-22T11:11:18.293Z,10.35
2019-03-22T11:13:44.490Z,10.68
2019-03-22T11:16:10.566Z,9.95
2019-03-22T11:18:37.603Z,10.98
2019-03-22T11:21:05.419Z,10.15
2019-03-22T11:23:31.683Z,10.30
2019-03-22T11:26:04.070Z,9.15
2019-03-22T11:28:25.611Z,10.90
2019-03-22T11:30:51.654Z,10.20
2019-03-22T11:33:17.674Z,9.60
2019-03-22T11:35:43.697Z,10.17
2019-03-22T11:38:09.505Z,13.00
2019-03-22T11:40:35.580Z,11.57
2019-03-22T11:43:08.701Z,11.90
2019-03-22T11:45:29.527Z,11.38
2019-03-22T11:47:56.613Z,10.58
2019-03-22T11:50:23.044Z,10.20
2019-03-22T11:52:49.553Z,11.08
2019-03-22T11:55:15.557Z,11.08
2019-03-22T11:57:41.870Z,11.55
2019-03-22T12:00:14.821Z,10.08
2019-03-22T12:02:40.988Z,10.10
2019-03-22T12:05:08.140Z,10.95
2019-03-22T12:07:33.915Z,10.20
2019-03-22T12:10:00.032Z,10.95
2019-03-22T12:12:25.826Z,10.45
2019-03-22T12:14:51.883Z,10.10
2019-03-22T12:17:18.276Z,10.43
2019-03-22T12:19:44.590Z,10.63
2019-03-22T12:22:10.508Z,9.77
2019-03-22T12:24:36.698Z,9.77
2019-03-22T12:27:02.950Z,10.00
2019-03-22T12:29:28.767Z,10.70
2019-03-22T12:31:55.079Z,9.23
2019-03-22T12:34:21.175Z,9.20
2019-03-22T12:36:47.286Z,10.30
2019-03-22T12:39:13.406Z,10.40
2019-03-22T12:41:39.928Z,10.17
2019-03-22T12:44:06.285Z,10.47
2019-03-22T12:46:32.389Z,11.27
2019-03-22T12:48:58.254Z,9.47
2019-03-22T12:51:24.345Z,9.03
2019-03-22T12:53:50.778Z,9.70
2019-03-22T12:56:16.904Z,9.10
2019-03-22T12:58:43.025Z,8.77
2019-03-22T13:01:27.702Z,9.73
2019-03-22T13:03:53.816Z,8.63
2019-03-22T13:06:19.834Z,9.10
2019-03-22T13:08:45.856Z,9.07
2019-03-22T13:11:11.942Z,9.00
2019-03-22T13:13:37.914Z,8.30
2019-03-22T13:16:03.984Z,8.13
2019-03-22T13:18:29.883Z,7.73
2019-03-22T13:20:55.900Z,8.17
2019-03-22T13:23:21.972Z,8.70
2019-03-22T13:25:47.984Z,9.17
2019-03-22T13:28:15.898Z,10.00
2019-03-22T13:30:41.807Z,10.53
2019-03-22T13:33:07.852Z,10.03
2019-03-22T13:35:34.172Z,9.73
2019-03-22T13:38:00.283Z,9.27
2019-03-22T13:40:26.514Z,9.10
2019-03-22T13:42:52.604Z,8.80
2019-03-22T13:45:18.716Z,9.03
2019-03-22T13:47:44.947Z,9.90
2019-03-22T13:50:11.075Z,9.80
2019-03-22T13:52:37.187Z,9.07
2019-03-22T13:55:04.971Z,8.77
2019-03-22T13:57:31.461Z,9.70
2019-03-22T13:59:57.671Z,9.37
2019-03-22T14:02:23.809Z,10.90
2019-03-22T14:04:50.031Z,8.97
2019-03-22T14:07:16.154Z,8.13
2019-03-22T14:09:42.113Z,8.13
2019-03-22T14:12:09.329Z,8.17
2019-03-22T14:14:38.074Z,8.80
2019-03-22T14:17:03.862Z,8.57
2019-03-22T14:19:29.891Z,9.00
2019-03-22T14:21:56.138Z,7.80
2019-03-22T14:24:22.243Z,7.87
2019-03-22T14:26:48.259Z,8.40
2019-03-22T14:29:14.419Z,8.20
2019-03-22T14:31:40.573Z,7.87
2019-03-22T14:34:06.568Z,7.73
2019-03-22T14:36:32.930Z,8.30
2019-03-22T14:38:58.719Z,7.40
2019-03-22T14:41:24.702Z,7.83
2019-03-22T14:43:50.752Z,7.53
2019-03-22T14:46:16.899Z,8.00
2019-03-22T14:48:43.041Z,7.50
2019-03-22T14:51:09.093Z,8.00
2019-03-22T14:53:34.893Z,8.53
2019-03-22T14:56:00.873Z,10.07
2019-03-22T14:58:27.017Z,8.87
2019-03-22T15:00:52.817Z,8.43
2019-03-22T15:03:25.839Z,8.67
2019-03-22T15:05:53.066Z,9.23
2019-03-22T15:08:19.681Z,8.90
2019-03-22T15:10:45.725Z,8.27
2019-03-22T15:13:12.001Z,8.93
2019-03-22T15:15:57.915Z,8.60
2019-03-22T15:18:31.977Z,8.70
2019-03-22T15:21:12.081Z,7.53
2019-03-22T15:23:39.810Z,8.60
2019-03-22T15:26:22.593Z,7.40
2019-03-22T15:29:08.617Z,6.20
2019-03-22T15:31:42.151Z,5.80
2019-03-22T15:34:27.916Z,6.43
2019-03-22T15:37:04.958Z,6.77
2019-03-22T15:39:38.971Z,6.47
2019-03-22T15:42:04.802Z,6.07
2019-03-22T15:44:31.095Z,7.40
2019-03-22T15:46:56.886Z,6.57
2019-03-22T15:49:22.832Z,7.90
2019-03-22T15:51:49.047Z,7.67
2019-03-22T15:54:15.005Z,7.70
2019-03-22T15:56:41.232Z,8.20
2019-03-22T15:59:07.368Z,8.30
2019-03-22T16:01:34.390Z,9.00
2019-03-22T16:04:00.585Z,9.37
2019-03-22T16:06:26.738Z,8.67
2019-03-22T16:08:52.794Z,8.57
2019-03-22T16:11:18.703Z,8.70
2019-03-22T16:13:44.711Z,8.67
2019-03-22T16:16:10.705Z,9.03
2019-03-22T16:18:36.792Z,9.80
2019-03-22T16:21:03.194Z,9.93
2019-03-22T16:23:29.187Z,9.03
2019-03-22T16:25:55.337Z,8.13
2019-03-22T16:28:21.487Z,8.20
2019-03-22T16:30:47.822Z,7.80
2019-03-22T16:33:13.625Z,7.47
2019-03-22T16:35:39.712Z,6.67
2019-03-22T16:38:05.859Z,6.47
2019-03-22T16:40:31.958Z,6.60
2019-03-22T16:42:58.700Z,6.90
2019-03-22T16:45:40.961Z,6.90
2019-03-22T16:48:06.755Z,7.97
2019-03-22T16:50:32.881Z,7.33
2019-03-22T16:52:59.005Z,7.53
2019-03-22T16:55:25.075Z,7.40
2019-03-22T16:57:50.927Z,7.43
2019-03-22T17:00:18.684Z,6.70
2019-03-22T17:02:45.023Z,6.43
2019-03-22T17:05:12.291Z,7.00
2019-03-22T17:07:38.324Z,6.10
2019-03-22T17:10:05.775Z,6.63
2019-03-22T17:12:31.653Z,6.47
2019-03-22T17:14:57.853Z,6.30
2019-03-22T17:17:23.817Z,6.37
2019-03-22T17:19:49.894Z,6.20
2019-03-22T17:22:16.079Z,6.97
2019-03-22T17:24:42.310Z,6.87
2019-03-22T17:27:08.412Z,6.33
2019-03-22T17:29:34.557Z,7.20
2019-03-22T17:32:00.709Z,6.93
2019-03-22T17:34:26.803Z,6.87
2019-03-22T17:36:52.755Z,6.40
2019-03-22T17:39:19.120Z,7.70
2019-03-22T17:41:45.218Z,7.13
2019-03-22T17:44:11.026Z,6.80
2019-03-22T17:46:37.214Z,6.70
2019-03-22T17:49:03.344Z,7.20
2019-03-22T17:51:30.284Z,7.60
2019-03-22T17:53:56.460Z,7.67
2019-03-22T17:56:22.544Z,7.40
2019-03-22T17:58:48.574Z,7.33
2019-03-22T18:01:14.656Z,8.07
2019-03-22T18:03:40.698Z,8.70
2019-03-22T18:06:08.566Z,7.30
2019-03-22T18:08:37.205Z,7.83
2019-03-22T18:11:03.246Z,7.20
2019-03-22T18:13:29.680Z,7.03
2019-03-22T18:15:55.785Z,7.03
2019-03-22T18:18:22.143Z,7.80
2019-03-22T18:20:48.113Z,8.20
2019-03-22T18:23:14.601Z,7.83
2019-03-22T18:25:40.697Z,8.20
2019-03-22T18:28:06.519Z,7.57
2019-03-22T18:30:32.624Z,8.30
2019-03-22T18:32:58.872Z,8.77
2019-03-22T18:35:25.049Z,8.57
2019-03-22T18:37:51.232Z,9.90
2019-03-22T18:40:17.352Z,10.70
2019-03-22T18:42:43.466Z,9.57
2019-03-22T18:45:11.396Z,9.53
2019-03-22T18:47:37.422Z,9.20
2019-03-22T18:50:06.266Z,9.97
2019-03-22T18:52:32.114Z,10.67
2019-03-22T18:54:58.134Z,11.47
2019-03-22T18:57:24.242Z,13.27
2019-03-22T18:59:50.343Z,14.10
2019-03-22T19:02:17.969Z,14.93
2019-03-22T19:04:44.543Z,14.70
2019-03-22T19:07:10.719Z,15.43
2019-03-22T19:09:36.930Z,19.90
2019-03-22T19:12:03.100Z,12.10
2019-03-22T19:14:29.461Z,11.13
2019-03-22T19:16:55.577Z,10.53
2019-03-22T19:19:21.642Z,11.20
2019-03-22T19:21:47.499Z,9.87
2019-03-22T19:24:13.667Z,10.57
2019-03-22T19:26:39.710Z,10.27
2019-03-22T19:29:05.797Z,10.97
2019-03-22T19:31:31.810Z,10.90
2019-03-22T19:33:57.670Z,11.33
2019-03-22T19:36:23.850Z,10.57
2019-03-22T19:38:49.795Z,13.23
2019-03-22T19:41:15.767Z,14.30
2019-03-22T19:43:41.573Z,14.10
2019-03-22T19:46:07.730Z,12.97
2019-03-22T19:48:33.822Z,12.77
2019-03-22T19:50:59.928Z,13.27
2019-03-22T19:53:26.448Z,12.47
2019-03-22T19:55:52.282Z,13.73
2019-03-22T19:58:18.332Z,12.70
2019-03-22T20:00:44.432Z,12.47
2019-03-22T20:03:10.276Z,11.57
2019-03-22T20:05:36.510Z,12.23
2019-03-22T20:08:02.812Z,11.47
2019-03-22T20:10:29.260Z,11.83
2019-03-22T20:12:55.371Z,11.17
2019-03-22T20:15:21.573Z,11.53
2019-03-22T20:17:47.526Z,13.33
2019-03-22T20:20:13.866Z,14.07
2019-03-22T20:22:39.677Z,14.17
2019-03-22T20:25:07.641Z,13.93
2019-03-22T20:27:33.665Z,14.63
2019-03-22T20:29:59.865Z,15.13
2019-03-22T20:32:25.868Z,16.53
2019-03-22T20:34:51.896Z,16.10
2019-03-22T20:37:18.039Z,15.90
2019-03-22T20:39:44.537Z,15.60
2019-03-22T20:42:10.527Z,13.87
2019-03-22T20:44:36.789Z,13.77
2019-03-22T20:47:03.029Z,14.53
2019-03-22T20:49:29.177Z,14.95
2019-03-22T20:51:55.641Z,13.70
2019-03-22T20:54:21.500Z,13.90
2019-03-22T20:56:47.588Z,15.00
2019-03-22T20:59:13.529Z,15.47
2019-03-22T21:01:39.629Z,15.17
2019-03-22T21:04:05.474Z,14.97
2019-03-22T21:06:31.538Z,15.60
2019-03-22T21:08:57.360Z,14.97
2019-03-22T21:11:23.401Z,15.67
2019-03-22T21:13:49.316Z,14.67
2019-03-22T21:16:15.375Z,14.60
2019-03-22T21:18:41.490Z,15.03
2019-03-22T21:21:07.358Z,13.93
2019-03-22T21:23:36.534Z,13.30
2019-03-22T21:26:01.414Z,13.17
2019-03-22T21:28:27.523Z,14.50
2019-03-22T21:30:53.692Z,14.13
2019-03-22T21:33:19.943Z,15.37
2019-03-22T21:35:46.397Z,14.73
2019-03-22T21:38:12.519Z,14.50
2019-03-22T21:40:38.865Z,15.00
2019-03-22T21:43:04.773Z,15.00
2019-03-22T21:45:30.847Z,14.70
2019-03-22T21:47:57.077Z,15.23
2019-03-22T21:50:23.278Z,15.67
2019-03-22T21:52:49.520Z,15.20
2019-03-22T21:55:18.163Z,14.77
2019-03-22T21:57:44.256Z,13.30
2019-03-22T22:00:12.216Z,13.93
2019-03-22T22:02:38.292Z,14.47
2019-03-22T22:05:05.471Z,13.93
2019-03-22T22:07:31.907Z,13.73
2019-03-22T22:09:58.057Z,13.60
2019-03-22T22:12:23.949Z,13.47
2019-03-22T22:14:50.063Z,12.70
2019-03-22T22:17:16.223Z,12.70
2019-03-22T22:19:42.137Z,12.93
2019-03-22T22:22:08.201Z,12.37
2019-03-22T22:24:34.657Z,13.43
2019-03-22T22:27:00.709Z,13.03
2019-03-22T22:29:26.828Z,12.80
2019-03-22T22:31:53.025Z,12.23
2019-03-22T22:34:18.988Z,12.37
2019-03-22T22:36:45.090Z,11.83
2019-03-22T22:39:11.185Z,13.10
2019-03-22T22:41:37.126Z,13.07
2019-03-22T22:44:03.051Z,12.33
2019-03-22T22:46:29.205Z,12.57
2019-03-22T22:48:55.569Z,12.87
2019-03-22T22:51:21.435Z,12.20
2019-03-22T22:53:47.523Z,11.97
2019-03-22T22:56:13.402Z,12.93
2019-03-22T22:58:39.515Z,11.13
2019-03-22T23:01:05.724Z,10.80
2019-03-22T23:03:31.957Z,11.47
2019-03-22T23:06:08.852Z,11.63
2019-03-22T23:08:26.492Z,11.67
2019-03-22T23:10:52.715Z,12.43
2019-03-22T23:13:18.786Z,10.87
2019-03-22T23:15:45.097Z,11.77
2019-03-22T23:18:10.895Z,11.70
2019-03-22T23:20:36.963Z,10.97
2019-03-22T23:23:03.198Z,11.73
2019-03-22T23:25:29.412Z,11.03
2019-03-22T23:27:55.274Z,11.87
2019-03-22T23:30:21.449Z,11.87
2019-03-22T23:32:47.328Z,11.60
2019-03-22T23:35:13.561Z,13.40
2019-03-22T23:37:39.627Z,11.87
2019-03-22T23:40:05.931Z,12.03
2019-03-22T23:42:31.952Z,11.30
2019-03-22T23:44:57.857Z,11.10
2019-03-22T23:47:23.978Z,11.50
2019-03-22T23:49:50.120Z,10.63
2019-03-22T23:52:16.029Z,10.73
2019-03-22T23:54:42.132Z,10.83
2019-03-22T23:57:08.203Z,11.33
2019-03-22T23:59:34.121Z,11.23
